createdAt,value
2018-05-16T00:00:43.692Z,1.35
2018-05-16T00:03:11.872Z,1.02
2018-05-16T00:05:40.086Z,1.70
2018-05-16T00:08:08.177Z,1.33
2018-05-16T00:10:36.367Z,1.55
2018-05-16T00:13:04.550Z,1.37
2018-05-16T00:15:32.747Z,1.20
2018-05-16T00:18:00.947Z,1.60
2018-05-16T00:20:29.148Z,1.87
2018-05-16T00:22:57.426Z,1.77
2018-05-16T00:25:25.723Z,1.75
2018-05-16T00:27:54.029Z,1.50
2018-05-16T00:30:22.323Z,1.23
2018-05-16T00:32:50.731Z,1.20
2018-05-16T00:35:19.013Z,1.30
2018-05-16T00:37:48.138Z,1.20
2018-05-16T00:40:16.323Z,1.23
2018-05-16T00:42:44.422Z,1.40
2018-05-16T00:45:12.627Z,1.40
2018-05-16T00:47:40.708Z,1.40
2018-05-16T00:50:08.907Z,1.30
2018-05-16T00:52:37.111Z,1.52
2018-05-16T00:55:05.294Z,1.30
2018-05-16T00:57:33.483Z,1.05
2018-05-16T01:00:01.691Z,1.42
2018-05-16T01:02:29.984Z,1.70
2018-05-16T01:04:58.169Z,1.55
2018-05-16T01:07:26.462Z,1.00
2018-05-16T01:09:54.765Z,1.62
2018-05-16T01:12:23.068Z,1.00
2018-05-16T01:14:51.363Z,1.30
2018-05-16T01:17:19.668Z,1.65
2018-05-16T01:19:47.866Z,1.20
2018-05-16T01:22:15.832Z,1.70
2018-05-16T01:24:44.033Z,1.40
2018-05-16T01:27:12.322Z,1.52
2018-05-16T01:29:40.528Z,1.70
2018-05-16T01:32:08.710Z,1.48
2018-05-16T01:34:36.925Z,1.40
2018-05-16T01:37:05.115Z,1.60
2018-05-16T01:39:33.203Z,1.42
2018-05-16T01:42:02.101Z,1.30
2018-05-16T01:44:30.411Z,1.62
2018-05-16T01:46:58.809Z,1.50
2018-05-16T01:49:27.013Z,1.60
2018-05-16T01:51:55.406Z,1.50
2018-05-16T01:54:23.709Z,1.25
2018-05-16T01:56:51.993Z,1.00
2018-05-16T01:59:20.087Z,1.12
2018-05-16T02:01:48.146Z,1.27
2018-05-16T02:04:16.161Z,1.50
2018-05-16T02:06:44.373Z,1.40
2018-05-16T02:09:12.562Z,1.25
2018-05-16T02:11:40.746Z,1.33
2018-05-16T02:14:09.046Z,1.30
2018-05-16T02:16:37.249Z,1.33
2018-05-16T02:19:05.445Z,1.12
2018-05-16T02:21:33.627Z,1.42
2018-05-16T02:24:02.031Z,1.20
2018-05-16T02:26:30.328Z,1.65
2018-05-16T02:28:58.727Z,1.40
2018-05-16T02:31:26.925Z,1.37
2018-05-16T02:33:55.227Z,1.00
2018-05-16T02:36:23.607Z,1.10
2018-05-16T02:38:51.906Z,1.08
2018-05-16T02:41:20.104Z,1.50
2018-05-16T02:43:48.164Z,1.37
2018-05-16T02:46:16.387Z,1.25
2018-05-16T02:48:44.587Z,1.40
2018-05-16T02:51:12.793Z,1.27
2018-05-16T02:53:40.965Z,1.30
2018-05-16T02:56:09.168Z,1.25
2018-05-16T02:58:37.366Z,1.10
2018-05-16T03:01:05.549Z,2.17
2018-05-16T03:03:33.750Z,1.50
2018-05-16T03:06:02.042Z,1.60
2018-05-16T03:08:30.343Z,1.45
2018-05-16T03:10:58.638Z,1.40
2018-05-16T03:13:26.941Z,1.15
2018-05-16T03:15:55.128Z,1.30
2018-05-16T03:18:23.528Z,11.07
2018-05-16T03:20:51.721Z,2.17
2018-05-16T03:23:19.926Z,1.37
2018-05-16T03:25:48.054Z,1.50
2018-05-16T03:28:16.044Z,1.85
2018-05-16T03:30:44.201Z,1.75
2018-05-16T03:33:12.297Z,1.50
2018-05-16T03:35:40.493Z,1.30
2018-05-16T03:38:08.583Z,1.70
2018-05-16T03:40:36.765Z,1.52
2018-05-16T03:43:05.172Z,1.50
2018-05-16T03:45:33.472Z,1.40
2018-05-16T03:48:01.652Z,1.42
2018-05-16T03:50:29.947Z,1.35
2018-05-16T03:52:58.243Z,1.10
2018-05-16T03:55:26.542Z,1.50
2018-05-16T03:57:54.843Z,1.27
2018-05-16T04:00:22.934Z,1.20
2018-05-16T04:02:51.126Z,1.37
2018-05-16T04:05:19.334Z,1.52
2018-05-16T04:07:47.534Z,1.20
2018-05-16T04:10:15.514Z,1.30
2018-05-16T04:12:43.704Z,1.00
2018-05-16T04:15:11.912Z,2.30
2018-05-16T04:17:40.088Z,1.35
2018-05-16T04:20:08.185Z,1.60
2018-05-16T04:22:36.484Z,2.20
2018-05-16T04:25:04.881Z,1.48
2018-05-16T04:27:33.181Z,1.83
2018-05-16T04:30:01.378Z,1.40
2018-05-16T04:32:29.676Z,1.70
2018-05-16T04:34:57.971Z,1.70
2018-05-16T04:37:26.268Z,1.95
2018-05-16T04:39:54.364Z,1.75
2018-05-16T04:42:22.550Z,1.50
2018-05-16T04:44:50.653Z,1.67
2018-05-16T04:47:18.848Z,1.48
2018-05-16T04:49:47.025Z,1.50
2018-05-16T04:52:15.082Z,1.65
2018-05-16T04:54:43.022Z,2.15
2018-05-16T04:57:11.206Z,2.30
2018-05-16T04:59:39.301Z,2.28
2018-05-16T05:02:07.601Z,1.75
2018-05-16T05:04:35.910Z,2.60
2018-05-16T05:07:04.195Z,2.60
2018-05-16T05:09:32.382Z,1.85
2018-05-16T05:12:00.685Z,1.98
2018-05-16T05:14:29.183Z,1.80
2018-05-16T05:16:57.365Z,2.40
2018-05-16T05:19:25.477Z,2.50
2018-05-16T05:21:53.659Z,2.87
2018-05-16T05:24:21.860Z,1.80
2018-05-16T05:26:50.055Z,2.00
2018-05-16T05:29:18.065Z,2.37
2018-05-16T05:31:46.232Z,2.20
2018-05-16T05:34:14.327Z,1.60
2018-05-16T05:36:42.375Z,1.95
2018-05-16T05:39:10.518Z,2.08
2018-05-16T05:41:38.804Z,2.25
2018-05-16T05:44:07.208Z,2.33
2018-05-16T05:46:35.513Z,2.40
2018-05-16T05:49:03.631Z,2.00
2018-05-16T05:51:32.088Z,3.35
2018-05-16T05:54:00.392Z,2.30
2018-05-16T05:56:28.596Z,2.10
2018-05-16T05:58:56.883Z,2.50
2018-05-16T06:01:25.085Z,2.70
2018-05-16T06:03:53.487Z,2.15
2018-05-16T06:06:22.683Z,2.12
2018-05-16T06:08:50.783Z,1.62
2018-05-16T06:11:18.887Z,1.70
2018-05-16T06:13:47.067Z,2.00
2018-05-16T06:16:15.102Z,1.75
2018-05-16T06:18:43.107Z,1.37
2018-05-16T06:21:11.150Z,1.60
2018-05-16T06:23:39.448Z,1.83
2018-05-16T06:26:07.741Z,2.05
2018-05-16T06:28:36.029Z,2.40
2018-05-16T06:31:04.328Z,1.87
2018-05-16T06:33:32.620Z,2.10
2018-05-16T06:36:00.826Z,1.52
2018-05-16T06:38:29.108Z,2.40
2018-05-16T06:40:57.521Z,2.33
2018-05-16T06:43:25.706Z,2.95
2018-05-16T06:45:53.980Z,2.50
2018-05-16T06:48:22.106Z,2.42
2018-05-16T06:50:50.388Z,2.65
2018-05-16T06:53:18.586Z,2.70
2018-05-16T06:55:46.796Z,2.95
2018-05-16T06:58:14.903Z,1.92
2018-05-16T07:00:42.972Z,1.80
2018-05-16T07:03:11.267Z,1.95
2018-05-16T07:05:39.453Z,2.50
2018-05-16T07:08:07.854Z,2.67
2018-05-16T07:10:36.152Z,2.08
2018-05-16T07:13:04.462Z,2.70
2018-05-16T07:15:32.756Z,2.30
2018-05-16T07:18:00.948Z,1.42
2018-05-16T07:20:29.033Z,1.98
2018-05-16T07:22:57.299Z,1.62
2018-05-16T07:25:25.429Z,1.48
2018-05-16T07:27:53.626Z,1.60
2018-05-16T07:30:21.714Z,1.60
2018-05-16T07:32:49.904Z,1.37
2018-05-16T07:35:18.006Z,1.67
2018-05-16T07:37:46.186Z,1.80
2018-05-16T07:40:14.392Z,1.45
2018-05-16T07:42:42.445Z,2.00
2018-05-16T07:45:10.573Z,1.50
2018-05-16T07:47:38.968Z,1.12
2018-05-16T07:50:07.369Z,1.30
2018-05-16T07:52:35.773Z,1.42
2018-05-16T07:55:03.971Z,1.58
2018-05-16T07:57:32.149Z,1.55
2018-05-16T08:00:00.252Z,1.30
2018-05-16T08:02:28.351Z,1.40
2018-05-16T08:04:56.539Z,1.13
2018-05-16T08:07:24.627Z,1.13
2018-05-16T08:09:52.810Z,1.90
2018-05-16T08:12:21.039Z,1.20
2018-05-16T08:14:49.301Z,1.00
2018-05-16T08:17:17.507Z,1.10
2018-05-16T08:19:45.808Z,1.03
2018-05-16T08:22:14.093Z,1.50
2018-05-16T08:24:42.323Z,0.90
2018-05-16T08:27:10.393Z,0.90
2018-05-16T08:29:38.690Z,1.07
2018-05-16T08:32:06.984Z,1.30
2018-05-16T08:34:35.183Z,1.10
2018-05-16T08:37:03.261Z,1.43
2018-05-16T08:39:31.468Z,1.33
2018-05-16T08:41:59.648Z,1.20
2018-05-16T08:44:27.843Z,1.20
2018-05-16T08:46:55.945Z,1.53
2018-05-16T08:49:24.244Z,1.10
2018-05-16T08:51:52.421Z,1.10
2018-05-16T08:54:20.623Z,1.00
2018-05-16T08:56:48.823Z,1.12
2018-05-16T08:59:17.028Z,1.45
2018-05-16T09:01:45.319Z,1.62
2018-05-16T09:04:13.615Z,1.45
2018-05-16T09:06:41.840Z,1.60
2018-05-16T09:09:09.965Z,1.05
2018-05-16T09:11:38.091Z,1.20
2018-05-16T09:14:06.387Z,1.17
2018-05-16T09:16:34.588Z,1.10
2018-05-16T09:19:02.773Z,1.00
2018-05-16T09:21:30.867Z,1.10
2018-05-16T09:23:59.061Z,1.60
2018-05-16T09:26:27.163Z,1.45
2018-05-16T09:28:55.452Z,1.45
2018-05-16T09:31:23.634Z,1.37
2018-05-16T09:33:51.848Z,1.05
2018-05-16T09:36:19.923Z,1.52
2018-05-16T09:38:48.114Z,1.40
2018-05-16T09:41:16.322Z,1.17
2018-05-16T09:43:44.521Z,1.70
2018-05-16T09:46:12.698Z,1.30
2018-05-16T09:48:41.015Z,1.30
2018-05-16T09:51:09.242Z,1.30
2018-05-16T09:53:37.492Z,1.25
2018-05-16T09:56:05.689Z,1.52
2018-05-16T09:58:33.878Z,1.55
2018-05-16T10:01:02.088Z,1.52
2018-05-16T10:03:30.472Z,1.62
2018-05-16T10:05:58.667Z,1.30
2018-05-16T10:08:26.773Z,1.55
2018-05-16T10:10:55.072Z,1.70
2018-05-16T10:13:24.279Z,1.62
2018-05-16T10:15:52.465Z,1.40
2018-05-16T10:18:20.471Z,1.20
2018-05-16T10:20:48.664Z,1.80
2018-05-16T10:23:16.943Z,1.93
2018-05-16T10:25:45.249Z,1.50
2018-05-16T10:28:13.542Z,1.67
2018-05-16T10:30:41.748Z,1.52
2018-05-16T10:33:09.826Z,1.47
2018-05-16T10:35:38.132Z,1.40
2018-05-16T10:38:06.334Z,1.98
2018-05-16T10:40:34.611Z,1.73
2018-05-16T10:43:02.806Z,1.80
2018-05-16T10:45:31.003Z,2.50
2018-05-16T10:47:59.206Z,2.30
2018-05-16T10:50:27.445Z,2.00
2018-05-16T10:52:55.587Z,1.97
2018-05-16T10:55:23.779Z,2.00
2018-05-16T10:57:51.990Z,2.20
2018-05-16T11:00:20.178Z,2.37
2018-05-16T11:02:48.475Z,2.23
2018-05-16T11:05:16.767Z,2.10
2018-05-16T11:07:45.056Z,1.90
2018-05-16T11:10:13.374Z,2.40
2018-05-16T11:12:41.671Z,1.77
2018-05-16T11:15:09.847Z,2.33
2018-05-16T11:17:37.941Z,1.80
2018-05-16T11:20:06.136Z,1.57
2018-05-16T11:22:34.336Z,2.00
2018-05-16T11:25:02.836Z,2.17
2018-05-16T11:27:31.039Z,1.97
2018-05-16T11:29:59.230Z,1.80
2018-05-16T11:32:27.331Z,1.90
2018-05-16T11:34:55.525Z,1.75
2018-05-16T11:37:23.603Z,1.67
2018-05-16T11:39:51.793Z,1.40
2018-05-16T11:42:20.117Z,1.60
2018-05-16T11:44:48.279Z,1.90
2018-05-16T11:47:16.490Z,2.10
2018-05-16T11:49:44.774Z,1.90
2018-05-16T11:52:12.874Z,1.70
2018-05-16T11:54:41.071Z,1.83
2018-05-16T11:57:09.207Z,2.20
2018-05-16T11:59:37.452Z,1.60
2018-05-16T12:02:05.550Z,1.47
2018-05-16T12:04:33.840Z,1.97
2018-05-16T12:07:02.141Z,1.73
2018-05-16T12:09:30.340Z,1.70
2018-05-16T12:11:58.421Z,1.67
2018-05-16T12:14:26.628Z,2.07
2018-05-16T12:16:54.710Z,2.80
2018-05-16T12:19:22.901Z,2.40
2018-05-16T12:21:51.005Z,3.20
2018-05-16T12:24:19.303Z,2.30
2018-05-16T12:26:47.603Z,1.77
2018-05-16T12:29:15.775Z,1.73
2018-05-16T12:31:43.992Z,2.13
2018-05-16T12:34:12.075Z,1.80
2018-05-16T12:36:40.325Z,1.67
2018-05-16T12:39:08.356Z,1.90
2018-05-16T12:41:36.500Z,2.00
2018-05-16T12:44:04.641Z,1.90
2018-05-16T12:46:32.859Z,1.77
2018-05-16T12:49:01.044Z,2.27
2018-05-16T12:51:29.229Z,2.17
2018-05-16T12:53:57.431Z,2.37
2018-05-16T12:56:25.725Z,3.00
2018-05-16T12:58:53.816Z,2.23
2018-05-16T13:01:21.934Z,2.22
2018-05-16T13:03:50.205Z,2.47
2018-05-16T13:06:18.294Z,2.15
2018-05-16T13:08:46.483Z,2.00
2018-05-16T13:11:14.684Z,1.80
2018-05-16T13:13:42.883Z,1.65
2018-05-16T13:16:11.083Z,1.58
2018-05-16T13:18:39.262Z,1.50
2018-05-16T13:21:07.471Z,1.73
2018-05-16T13:23:35.659Z,1.30
2018-05-16T13:26:03.623Z,1.60
2018-05-16T13:28:31.837Z,1.80
2018-05-16T13:30:59.929Z,1.52
2018-05-16T13:33:28.128Z,1.33
2018-05-16T13:35:56.423Z,1.37
2018-05-16T13:38:24.613Z,1.50
2018-05-16T13:40:52.812Z,1.40
2018-05-16T13:43:21.115Z,2.08
2018-05-16T13:45:49.306Z,1.92
2018-05-16T13:48:17.590Z,1.92
2018-05-16T13:50:45.788Z,1.65
2018-05-16T13:53:14.098Z,1.35
2018-05-16T13:55:42.185Z,1.92
2018-05-16T13:58:10.387Z,1.33
2018-05-16T14:00:38.583Z,1.60
2018-05-16T14:03:06.874Z,1.50
2018-05-16T14:05:34.964Z,1.40
2018-05-16T14:08:03.152Z,1.10
2018-05-16T14:10:31.246Z,1.80
2018-05-16T14:13:00.168Z,1.55
2018-05-16T14:15:28.357Z,1.62
2018-05-16T14:17:56.432Z,1.70
2018-05-16T14:20:24.736Z,1.62
2018-05-16T14:22:52.833Z,2.00
2018-05-16T14:25:21.062Z,1.30
2018-05-16T14:27:49.224Z,1.90
2018-05-16T14:30:17.524Z,1.70
2018-05-16T14:32:45.811Z,1.70
2018-05-16T14:35:13.996Z,1.73
2018-05-16T14:37:42.106Z,2.00
2018-05-16T14:40:11.108Z,1.40
2018-05-16T14:42:39.317Z,2.12
2018-05-16T14:45:07.493Z,2.22
2018-05-16T14:47:35.664Z,1.90
2018-05-16T14:50:03.686Z,2.03
2018-05-16T14:52:31.881Z,1.12
2018-05-16T14:55:00.272Z,1.45
2018-05-16T14:57:28.481Z,1.20
2018-05-16T14:59:56.780Z,1.20
2018-05-16T15:02:25.166Z,1.62
2018-05-16T15:04:53.480Z,1.52
2018-05-16T15:07:21.839Z,1.37
2018-05-16T15:09:50.047Z,1.60
2018-05-16T15:12:18.244Z,1.20
2018-05-16T15:14:47.084Z,1.23
2018-05-16T15:17:15.359Z,1.23
2018-05-16T15:19:44.619Z,1.10
2018-05-16T15:22:12.978Z,1.60
2018-05-16T15:24:41.364Z,1.40
2018-05-16T15:27:09.918Z,1.10
2018-05-16T15:29:38.069Z,1.60
2018-05-16T15:32:06.356Z,2.50
2018-05-16T15:34:34.549Z,1.70
2018-05-16T15:37:02.743Z,1.30
2018-05-16T15:39:30.853Z,1.67
2018-05-16T15:41:58.931Z,1.50
2018-05-16T15:44:27.129Z,1.08
2018-05-16T15:46:55.412Z,1.25
2018-05-16T15:49:23.528Z,2.22
2018-05-16T15:51:51.611Z,1.35
2018-05-16T15:54:19.713Z,1.65
2018-05-16T15:56:47.892Z,1.35
2018-05-16T15:59:16.196Z,1.45
2018-05-16T16:01:44.383Z,1.90
2018-05-16T16:04:12.487Z,1.70
2018-05-16T16:06:40.577Z,2.20
2018-05-16T16:09:08.776Z,2.28
2018-05-16T16:11:36.763Z,1.42
2018-05-16T16:14:04.957Z,1.30
2018-05-16T16:16:33.041Z,1.55
2018-05-16T16:19:01.144Z,1.83
2018-05-16T16:21:29.428Z,2.10
2018-05-16T16:23:57.625Z,2.10
2018-05-16T16:26:25.820Z,1.55
2018-05-16T16:28:53.920Z,1.50
2018-05-16T16:31:22.221Z,2.42
2018-05-16T16:33:50.615Z,1.48
2018-05-16T16:36:19.003Z,1.62
2018-05-16T16:38:47.219Z,1.60
2018-05-16T16:41:15.621Z,1.70
2018-05-16T16:43:43.891Z,1.75
2018-05-16T16:46:12.092Z,1.52
2018-05-16T16:48:40.291Z,1.70
2018-05-16T16:51:08.491Z,1.50
2018-05-16T16:53:36.494Z,2.67
2018-05-16T16:56:05.591Z,4.22
2018-05-16T16:58:33.670Z,2.40
2018-05-16T17:01:01.773Z,2.30
2018-05-16T17:03:29.971Z,3.95
2018-05-16T17:05:58.056Z,2.30
2018-05-16T17:08:26.444Z,2.30
2018-05-16T17:10:54.760Z,3.22
2018-05-16T17:13:22.948Z,2.90
2018-05-16T17:15:51.041Z,2.90
2018-05-16T17:18:19.242Z,2.10
2018-05-16T17:20:47.323Z,2.00
2018-05-16T17:23:15.515Z,2.00
2018-05-16T17:25:43.605Z,2.50
2018-05-16T17:28:11.925Z,2.40
2018-05-16T17:30:40.003Z,2.42
2018-05-16T17:33:08.131Z,1.70
2018-05-16T17:35:36.090Z,2.30
2018-05-16T17:38:04.272Z,1.90
2018-05-16T17:40:32.478Z,1.92
2018-05-16T17:43:00.671Z,2.15
2018-05-16T17:45:28.771Z,1.95
2018-05-16T17:47:56.951Z,1.70
2018-05-16T17:50:25.132Z,2.17
2018-05-16T17:52:53.352Z,1.77
2018-05-16T17:55:21.531Z,2.25
2018-05-16T17:57:49.734Z,1.90
2018-05-16T18:00:19.051Z,2.45
2018-05-16T18:02:47.230Z,2.70
2018-05-16T18:05:15.430Z,4.60
2018-05-16T18:07:43.640Z,3.00
2018-05-16T18:10:11.738Z,2.50
2018-05-16T18:12:39.931Z,2.72
2018-05-16T18:15:08.020Z,3.00
2018-05-16T18:17:36.072Z,3.15
2018-05-16T18:20:04.099Z,2.78
2018-05-16T18:22:32.290Z,3.35
2018-05-16T18:25:00.500Z,2.95
2018-05-16T18:27:28.670Z,2.95
2018-05-16T18:29:56.970Z,3.35
2018-05-16T18:32:25.167Z,2.80
2018-05-16T18:34:53.356Z,2.95
2018-05-16T18:37:21.564Z,2.83
2018-05-16T18:39:49.578Z,3.30
2018-05-16T18:42:17.910Z,3.30
2018-05-16T18:44:46.035Z,3.10
2018-05-16T18:47:14.229Z,3.35
2018-05-16T18:49:42.409Z,2.45
2018-05-16T18:52:10.710Z,3.00
2018-05-16T18:54:38.919Z,2.80
2018-05-16T18:57:07.109Z,3.65
2018-05-16T18:59:35.211Z,3.05
2018-05-16T19:02:03.349Z,3.72
2018-05-16T19:04:31.488Z,3.83
2018-05-16T19:06:59.740Z,3.55
2018-05-16T19:09:27.892Z,4.43
2018-05-16T19:11:55.971Z,4.68
2018-05-16T19:14:24.176Z,3.90
2018-05-16T19:16:52.452Z,4.97
2018-05-16T19:19:20.644Z,4.55
2018-05-16T19:21:48.649Z,4.43
2018-05-16T19:24:16.846Z,5.07
2018-05-16T19:26:44.945Z,4.93
2018-05-16T19:29:13.229Z,4.53
2018-05-16T19:31:41.323Z,5.12
2018-05-16T19:34:09.522Z,4.72
2018-05-16T19:36:37.615Z,4.32
2018-05-16T19:39:05.802Z,4.82
2018-05-16T19:41:34.107Z,4.62
2018-05-16T19:44:02.488Z,3.70
2018-05-16T19:46:30.489Z,3.95
2018-05-16T19:48:58.799Z,4.15
2018-05-16T19:51:26.991Z,3.85
2018-05-16T19:53:55.384Z,3.33
2018-05-16T19:56:23.563Z,3.17
2018-05-16T19:58:51.764Z,4.18
2018-05-16T20:01:19.963Z,3.30
2018-05-16T20:03:48.152Z,4.40
2018-05-16T20:06:16.348Z,4.37
2018-05-16T20:08:44.548Z,4.20
2018-05-16T20:11:12.746Z,4.15
2018-05-16T20:13:41.031Z,4.35
2018-05-16T20:16:09.228Z,4.50
2018-05-16T20:18:37.525Z,4.28
2018-05-16T20:21:05.721Z,3.92
2018-05-16T20:23:33.915Z,4.07
2018-05-16T20:26:02.104Z,4.03
2018-05-16T20:28:30.221Z,4.03
2018-05-16T20:30:58.401Z,5.03
2018-05-16T20:33:26.587Z,3.85
2018-05-16T20:35:54.776Z,3.35
2018-05-16T20:38:22.982Z,3.92
2018-05-16T20:40:51.168Z,4.20
2018-05-16T20:43:19.366Z,4.35
2018-05-16T20:45:47.468Z,4.57
2018-05-16T20:48:15.656Z,4.87
2018-05-16T20:50:43.772Z,3.83
2018-05-16T20:53:12.143Z,3.70
2018-05-16T20:55:40.446Z,2.95
2018-05-16T20:58:08.730Z,4.07
2018-05-16T21:00:37.022Z,3.40
2018-05-16T21:03:05.224Z,2.90
2018-05-16T21:05:33.531Z,3.90
2018-05-16T21:08:01.915Z,3.00
2018-05-16T21:10:29.844Z,2.83
2018-05-16T21:12:58.004Z,2.95
2018-05-16T21:15:26.194Z,2.70
2018-05-16T21:17:54.304Z,2.70
2018-05-16T21:20:22.383Z,2.90
2018-05-16T21:22:50.574Z,2.33
2018-05-16T21:25:19.288Z,2.50
2018-05-16T21:27:47.384Z,2.90
2018-05-16T21:30:15.678Z,3.17
2018-05-16T21:32:43.863Z,2.30
2018-05-16T21:35:12.069Z,2.60
2018-05-16T21:37:40.161Z,2.75
2018-05-16T21:40:08.337Z,2.62
2018-05-16T21:42:36.544Z,2.70
2018-05-16T21:45:04.730Z,2.90
2018-05-16T21:47:32.834Z,2.87
2018-05-16T21:50:01.027Z,2.30
2018-05-16T21:52:29.106Z,3.15
2018-05-16T21:54:57.172Z,2.90
2018-05-16T21:57:25.408Z,2.70
2018-05-16T21:59:53.604Z,2.40
2018-05-16T22:02:21.684Z,3.25
2018-05-16T22:04:49.884Z,2.45
2018-05-16T22:07:18.072Z,2.47
2018-05-16T22:09:46.280Z,2.65
2018-05-16T22:12:14.568Z,3.70
2018-05-16T22:14:42.873Z,2.90
2018-05-16T22:17:10.964Z,3.10
2018-05-16T22:19:39.221Z,3.30
2018-05-16T22:22:07.554Z,3.00
2018-05-16T22:24:36.047Z,2.92
2018-05-16T22:27:04.260Z,3.62
2018-05-16T22:29:32.447Z,3.05
2018-05-16T22:32:00.631Z,4.00
2018-05-16T22:34:28.822Z,3.90
2018-05-16T22:36:56.925Z,4.68
2018-05-16T22:39:25.021Z,4.10
2018-05-16T22:41:53.204Z,3.85
2018-05-16T22:44:21.392Z,4.00
2018-05-16T22:46:49.487Z,3.42
2018-05-16T22:49:17.686Z,3.60
2018-05-16T22:51:45.784Z,3.62
2018-05-16T22:54:14.067Z,3.35
2018-05-16T22:56:42.364Z,2.83
2018-05-16T22:59:10.666Z,2.70
2018-05-16T23:01:38.964Z,3.00
2018-05-16T23:04:07.261Z,2.70
2018-05-16T23:06:35.567Z,2.70
2018-05-16T23:09:03.754Z,3.17
2018-05-16T23:11:31.958Z,1.90
2018-05-16T23:14:00.146Z,2.58
2018-05-16T23:16:28.380Z,2.47
2018-05-16T23:18:56.566Z,2.75
2018-05-16T23:21:24.626Z,2.80
2018-05-16T23:23:52.807Z,2.87
2018-05-16T23:26:20.906Z,2.50
2018-05-16T23:28:49.202Z,2.97
2018-05-16T23:31:17.493Z,2.70
2018-05-16T23:33:45.803Z,2.55
2018-05-16T23:36:13.886Z,3.10
2018-05-16T23:38:42.089Z,3.80
2018-05-16T23:41:10.484Z,2.72
2018-05-16T23:43:38.688Z,2.95
2018-05-16T23:46:06.885Z,3.05
2018-05-16T23:48:34.970Z,3.33
2018-05-16T23:51:03.163Z,4.10
2018-05-16T23:53:31.368Z,3.47
2018-05-16T23:55:59.548Z,2.42
2018-05-16T23:58:27.750Z,2.75
